sensor_id;sensor_type;location;lat;lon;timestamp;P1;durP1;ratioP1;P2;durP2;ratioP2
20344;SDS011;10330;48.816;9.278;2023-04-01T00:02:10;0.73;;;0.50;;
20344;SDS011;10330;48.816;9.278;2023-04-01T00:05:08;1.58;;;0.50;;
20344;SDS011;10330;48.816;9.278;2023-04-01T00:07:39;1.15;;;0.60;;
20344;SDS011;10330;48.816;9.278;2023-04-01T00:10:06;0.55;;;0.55;;
20344;SDS011;10330;48.816;9.278;2023-04-01T00:12:34;0.57;;;0.57;;
20344;SDS011;10330;48.816;9.278;2023-04-01T00:15:01;1.00;;;0.50;;
20344;SDS011;10330;48.816;9.278;2023-04-01T00:17:28;0.40;;;0.40;;
20344;SDS011;10330;48.816;9.278;2023-04-01T00:19:54;3.40;;;0.95;;
20344;SDS011;10330;48.816;9.278;2023-04-01T00:22:22;3.33;;;0.80;;
20344;SDS011;10330;48.816;9.278;2023-04-01T00:24:48;0.82;;;0.80;;
20344;SDS011;10330;48.816;9.278;2023-04-01T00:27:15;2.38;;;0.80;;
20344;SDS011;10330;48.816;9.278;2023-04-01T00:29:42;2.65;;;0.80;;
20344;SDS011;10330;48.816;9.278;2023-04-01T00:32:09;5.85;;;0.70;;
20344;SDS011;10330;48.816;9.278;2023-04-01T00:34:36;2.13;;;0.60;;
20344;SDS011;10330;48.816;9.278;2023-04-01T00:37:03;3.38;;;0.80;;
20344;SDS011;10330;48.816;9.278;2023-04-01T00:39:30;2.28;;;0.73;;
20344;SDS011;10330;48.816;9.278;2023-04-01T00:41:58;3.08;;;0.98;;
20344;SDS011;10330;48.816;9.278;2023-04-01T00:44:29;2.97;;;0.60;;
20344;SDS011;10330;48.816;9.278;2023-04-01T00:47:00;2.05;;;0.77;;
20344;SDS011;10330;48.816;9.278;2023-04-01T00:49:27;0.60;;;0.60;;
20344;SDS011;10330;48.816;9.278;2023-04-01T00:51:58;2.30;;;1.02;;
20344;SDS011;10330;48.816;9.278;2023-04-01T00:54:27;2.10;;;0.50;;
20344;SDS011;10330;48.816;9.278;2023-04-01T00:56:59;3.70;;;1.00;;
20344;SDS011;10330;48.816;9.278;2023-04-01T00:59:32;3.50;;;0.55;;
20344;SDS011;10330;48.816;9.278;2023-04-01T01:02:01;0.63;;;0.63;;
20344;SDS011;10330;48.816;9.278;2023-04-01T01:04:30;1.67;;;0.80;;
20344;SDS011;10330;48.816;9.278;2023-04-01T01:10:03;5.85;;;0.73;;
20344;SDS011;10330;48.816;9.278;2023-04-01T01:38:08;1.58;;;0.60;;
20344;SDS011;10330;48.816;9.278;2023-04-01T01:40:42;1.73;;;0.80;;
20344;SDS011;10330;48.816;9.278;2023-04-01T01:43:14;1.55;;;0.70;;
20344;SDS011;10330;48.816;9.278;2023-04-01T01:45:49;8.02;;;0.60;;
20344;SDS011;10330;48.816;9.278;2023-04-01T01:48:19;2.47;;;0.68;;
20344;SDS011;10330;48.816;9.278;2023-04-01T01:50:46;6.18;;;0.85;;
20344;SDS011;10330;48.816;9.278;2023-04-01T01:53:15;1.55;;;0.60;;
20344;SDS011;10330;48.816;9.278;2023-04-01T01:55:43;2.63;;;0.60;;
20344;SDS011;10330;48.816;9.278;2023-04-01T01:58:33;1.42;;;0.50;;
20344;SDS011;10330;48.816;9.278;2023-04-01T02:01:16;1.73;;;0.90;;
20344;SDS011;10330;48.816;9.278;2023-04-01T02:03:46;3.28;;;0.52;;
20344;SDS011;10330;48.816;9.278;2023-04-01T02:06:14;7.65;;;0.90;;
20344;SDS011;10330;48.816;9.278;2023-04-01T02:08:54;0.55;;;0.55;;
20344;SDS011;10330;48.816;9.278;2023-04-01T02:11:52;1.17;;;0.85;;
20344;SDS011;10330;48.816;9.278;2023-04-01T02:17:08;6.45;;;0.85;;
20344;SDS011;10330;48.816;9.278;2023-04-01T02:19:39;1.98;;;0.63;;
20344;SDS011;10330;48.816;9.278;2023-04-01T02:22:14;3.20;;;0.57;;
20344;SDS011;10330;48.816;9.278;2023-04-01T02:24:46;1.23;;;0.43;;
20344;SDS011;10330;48.816;9.278;2023-04-01T02:27:16;4.70;;;0.60;;
20344;SDS011;10330;48.816;9.278;2023-04-01T02:29:42;1.33;;;0.77;;
20344;SDS011;10330;48.816;9.278;2023-04-01T02:32:08;5.68;;;1.08;;
20344;SDS011;10330;48.816;9.278;2023-04-01T02:34:36;0.88;;;0.73;;
20344;SDS011;10330;48.816;9.278;2023-04-01T02:37:02;3.42;;;0.57;;
20344;SDS011;10330;48.816;9.278;2023-04-01T02:39:29;0.85;;;0.70;;
20344;SDS011;10330;48.816;9.278;2023-04-01T02:41:56;2.28;;;0.73;;
20344;SDS011;10330;48.816;9.278;2023-04-01T02:44:22;2.78;;;0.60;;
20344;SDS011;10330;48.816;9.278;2023-04-01T02:46:49;1.20;;;0.40;;
20344;SDS011;10330;48.816;9.278;2023-04-01T02:49:15;1.88;;;0.40;;
20344;SDS011;10330;48.816;9.278;2023-04-01T02:51:41;2.45;;;0.82;;
20344;SDS011;10330;48.816;9.278;2023-04-01T02:54:08;0.63;;;0.52;;
20344;SDS011;10330;48.816;9.278;2023-04-01T02:56:35;1.17;;;0.50;;
20344;SDS011;10330;48.816;9.278;2023-04-01T02:59:01;3.20;;;0.77;;
20344;SDS011;10330;48.816;9.278;2023-04-01T03:01:27;0.77;;;0.70;;
20344;SDS011;10330;48.816;9.278;2023-04-01T03:03:53;0.30;;;0.30;;
20344;SDS011;10330;48.816;9.278;2023-04-01T03:06:20;1.45;;;0.50;;
20344;SDS011;10330;48.816;9.278;2023-04-01T03:08:46;0.30;;;0.30;;
20344;SDS011;10330;48.816;9.278;2023-04-01T03:11:12;1.10;;;0.40;;
20344;SDS011;10330;48.816;9.278;2023-04-01T03:13:39;1.48;;;0.50;;
20344;SDS011;10330;48.816;9.278;2023-04-01T03:16:05;2.15;;;0.30;;
20344;SDS011;10330;48.816;9.278;2023-04-01T03:18:32;0.50;;;0.35;;
20344;SDS011;10330;48.816;9.278;2023-04-01T03:21:11;0.52;;;0.40;;
20344;SDS011;10330;48.816;9.278;2023-04-01T03:23:43;1.45;;;0.40;;
20344;SDS011;10330;48.816;9.278;2023-04-01T03:26:09;0.30;;;0.30;;
20344;SDS011;10330;48.816;9.278;2023-04-01T03:28:35;0.32;;;0.32;;
20344;SDS011;10330;48.816;9.278;2023-04-01T03:31:02;2.40;;;0.30;;
20344;SDS011;10330;48.816;9.278;2023-04-01T03:33:35;1.52;;;0.40;;
20344;SDS011;10330;48.816;9.278;2023-04-01T03:36:01;0.38;;;0.28;;
20344;SDS011;10330;48.816;9.278;2023-04-01T03:38:32;0.57;;;0.50;;
20344;SDS011;10330;48.816;9.278;2023-04-01T03:40:59;0.35;;;0.35;;
20344;SDS011;10330;48.816;9.278;2023-04-01T03:43:25;0.30;;;0.30;;
20344;SDS011;10330;48.816;9.278;2023-04-01T03:45:52;0.45;;;0.45;;
20344;SDS011;10330;48.816;9.278;2023-04-01T03:48:20;0.75;;;0.50;;
20344;SDS011;10330;48.816;9.278;2023-04-01T03:50:46;0.57;;;0.57;;
20344;SDS011;10330;48.816;9.278;2023-04-01T03:53:13;0.63;;;0.38;;
20344;SDS011;10330;48.816;9.278;2023-04-01T03:55:42;0.40;;;0.32;;
20344;SDS011;10330;48.816;9.278;2023-04-01T03:58:09;2.17;;;0.50;;
20344;SDS011;10330;48.816;9.278;2023-04-01T04:00:35;0.30;;;0.22;;
20344;SDS011;10330;48.816;9.278;2023-04-01T04:03:02;0.47;;;0.47;;
20344;SDS011;10330;48.816;9.278;2023-04-01T04:05:33;0.40;;;0.40;;
20344;SDS011;10330;48.816;9.278;2023-04-01T04:07:59;3.42;;;0.45;;
20344;SDS011;10330;48.816;9.278;2023-04-01T04:10:26;0.85;;;0.47;;
20344;SDS011;10330;48.816;9.278;2023-04-01T04:12:52;0.35;;;0.35;;
20344;SDS011;10330;48.816;9.278;2023-04-01T04:15:21;2.95;;;0.30;;
20344;SDS011;10330;48.816;9.278;2023-04-01T04:17:47;0.30;;;0.30;;
20344;SDS011;10330;48.816;9.278;2023-04-01T04:20:14;0.50;;;0.50;;
20344;SDS011;10330;48.816;9.278;2023-04-01T04:22:41;1.88;;;0.50;;
20344;SDS011;10330;48.816;9.278;2023-04-01T04:25:08;0.50;;;0.45;;
20344;SDS011;10330;48.816;9.278;2023-04-01T04:27:35;0.52;;;0.50;;
20344;SDS011;10330;48.816;9.278;2023-04-01T04:30:07;0.50;;;0.50;;
20344;SDS011;10330;48.816;9.278;2023-04-01T04:32:34;0.60;;;0.38;;
20344;SDS011;10330;48.816;9.278;2023-04-01T04:35:01;0.70;;;0.52;;
20344;SDS011;10330;48.816;9.278;2023-04-01T04:37:27;0.80;;;0.68;;
20344;SDS011;10330;48.816;9.278;2023-04-01T04:39:53;0.52;;;0.50;;
20344;SDS011;10330;48.816;9.278;2023-04-01T04:42:20;0.45;;;0.45;;
20344;SDS011;10330;48.816;9.278;2023-04-01T04:44:46;0.30;;;0.30;;
20344;SDS011;10330;48.816;9.278;2023-04-01T04:47:12;1.27;;;0.40;;
20344;SDS011;10330;48.816;9.278;2023-04-01T04:49:39;0.47;;;0.30;;
20344;SDS011;10330;48.816;9.278;2023-04-01T04:52:08;0.38;;;0.38;;
20344;SDS011;10330;48.816;9.278;2023-04-01T04:54:34;0.63;;;0.63;;
20344;SDS011;10330;48.816;9.278;2023-04-01T04:57:03;0.55;;;0.55;;
20344;SDS011;10330;48.816;9.278;2023-04-01T04:59:35;0.57;;;0.57;;
20344;SDS011;10330;48.816;9.278;2023-04-01T05:02:07;5.93;;;0.70;;
20344;SDS011;10330;48.816;9.278;2023-04-01T05:04:34;1.98;;;0.63;;
20344;SDS011;10330;48.816;9.278;2023-04-01T05:07:01;0.30;;;0.30;;
20344;SDS011;10330;48.816;9.278;2023-04-01T05:09:28;1.15;;;0.43;;
20344;SDS011;10330;48.816;9.278;2023-04-01T05:11:54;0.50;;;0.50;;
20344;SDS011;10330;48.816;9.278;2023-04-01T05:14:22;0.50;;;0.50;;
20344;SDS011;10330;48.816;9.278;2023-04-01T05:16:56;1.90;;;0.55;;
20344;SDS011;10330;48.816;9.278;2023-04-01T05:19:22;0.77;;;0.50;;
20344;SDS011;10330;48.816;9.278;2023-04-01T05:21:48;4.30;;;0.43;;
20344;SDS011;10330;48.816;9.278;2023-04-01T05:24:15;0.40;;;0.40;;
20344;SDS011;10330;48.816;9.278;2023-04-01T05:26:42;1.13;;;0.50;;
20344;SDS011;10330;48.816;9.278;2023-04-01T05:29:08;2.53;;;0.70;;
20344;SDS011;10330;48.816;9.278;2023-04-01T05:31:35;0.75;;;0.75;;
20344;SDS011;10330;48.816;9.278;2023-04-01T05:34:03;2.65;;;0.65;;
20344;SDS011;10330;48.816;9.278;2023-04-01T05:36:29;3.80;;;0.90;;
20344;SDS011;10330;48.816;9.278;2023-04-01T05:38:56;0.60;;;0.60;;
20344;SDS011;10330;48.816;9.278;2023-04-01T05:41:24;1.92;;;1.00;;
20344;SDS011;10330;48.816;9.278;2023-04-01T05:43:50;0.55;;;0.55;;
20344;SDS011;10330;48.816;9.278;2023-04-01T05:46:52;3.20;;;0.88;;
20344;SDS011;10330;48.816;9.278;2023-04-01T05:49:24;0.68;;;0.68;;
20344;SDS011;10330;48.816;9.278;2023-04-01T05:51:50;1.75;;;0.80;;
20344;SDS011;10330;48.816;9.278;2023-04-01T05:54:17;0.60;;;0.60;;
20344;SDS011;10330;48.816;9.278;2023-04-01T05:56:45;1.23;;;0.60;;
20344;SDS011;10330;48.816;9.278;2023-04-01T05:59:11;0.88;;;0.68;;
20344;SDS011;10330;48.816;9.278;2023-04-01T06:01:38;0.70;;;0.60;;
20344;SDS011;10330;48.816;9.278;2023-04-01T06:04:05;0.40;;;0.40;;
20344;SDS011;10330;48.816;9.278;2023-04-01T06:06:32;3.72;;;0.60;;
20344;SDS011;10330;48.816;9.278;2023-04-01T06:09:18;3.53;;;0.80;;
20344;SDS011;10330;48.816;9.278;2023-04-01T06:20:03;3.60;;;0.70;;
20344;SDS011;10330;48.816;9.278;2023-04-01T06:22:47;1.75;;;0.65;;
20344;SDS011;10330;48.816;9.278;2023-04-01T06:31:19;1.30;;;0.57;;
20344;SDS011;10330;48.816;9.278;2023-04-01T06:34:01;1.85;;;0.80;;
20344;SDS011;10330;48.816;9.278;2023-04-01T06:36:50;0.47;;;0.47;;
20344;SDS011;10330;48.816;9.278;2023-04-01T06:51:52;2.38;;;0.73;;
20344;SDS011;10330;48.816;9.278;2023-04-01T06:58:27;0.40;;;0.40;;
20344;SDS011;10330;48.816;9.278;2023-04-01T07:01:00;0.57;;;0.57;;
20344;SDS011;10330;48.816;9.278;2023-04-01T07:03:33;0.50;;;0.50;;
20344;SDS011;10330;48.816;9.278;2023-04-01T07:06:10;2.17;;;0.60;;
20344;SDS011;10330;48.816;9.278;2023-04-01T07:08:50;0.43;;;0.43;;
20344;SDS011;10330;48.816;9.278;2023-04-01T07:11:24;0.75;;;0.75;;
20344;SDS011;10330;48.816;9.278;2023-04-01T07:14:31;1.45;;;0.70;;
20344;SDS011;10330;48.816;9.278;2023-04-01T07:19:52;0.52;;;0.30;;
20344;SDS011;10330;48.816;9.278;2023-04-01T07:22:36;0.40;;;0.40;;
20344;SDS011;10330;48.816;9.278;2023-04-01T07:25:18;1.00;;;0.60;;
20344;SDS011;10330;48.816;9.278;2023-04-01T07:28:03;2.05;;;0.93;;
20344;SDS011;10330;48.816;9.278;2023-04-01T07:33:30;3.65;;;0.55;;
20344;SDS011;10330;48.816;9.278;2023-04-01T07:42:27;3.60;;;1.10;;
20344;SDS011;10330;48.816;9.278;2023-04-01T07:47:49;0.70;;;0.70;;
20344;SDS011;10330;48.816;9.278;2023-04-01T07:59:52;1.17;;;0.75;;
20344;SDS011;10330;48.816;9.278;2023-04-01T08:07:49;3.30;;;0.80;;
20344;SDS011;10330;48.816;9.278;2023-04-01T08:10:58;1.60;;;0.70;;
20344;SDS011;10330;48.816;9.278;2023-04-01T08:14:41;0.47;;;0.43;;
20344;SDS011;10330;48.816;9.278;2023-04-01T08:23:40;0.75;;;0.60;;
20344;SDS011;10330;48.816;9.278;2023-04-01T08:32:20;0.73;;;0.40;;
20344;SDS011;10330;48.816;9.278;2023-04-01T08:37:41;0.40;;;0.40;;
20344;SDS011;10330;48.816;9.278;2023-04-01T09:05:06;0.77;;;0.77;;
20344;SDS011;10330;48.816;9.278;2023-04-01T09:08:03;1.48;;;0.90;;
20344;SDS011;10330;48.816;9.278;2023-04-01T09:10:53;0.50;;;0.50;;
20344;SDS011;10330;48.816;9.278;2023-04-01T09:14:05;0.70;;;0.55;;
20344;SDS011;10330;48.816;9.278;2023-04-01T09:28:44;2.65;;;0.40;;
20344;SDS011;10330;48.816;9.278;2023-04-01T09:37:21;0.40;;;0.40;;
20344;SDS011;10330;48.816;9.278;2023-04-01T09:46:03;0.50;;;0.50;;
20344;SDS011;10330;48.816;9.278;2023-04-01T09:57:07;0.50;;;0.50;;
20344;SDS011;10330;48.816;9.278;2023-04-01T10:08:10;0.68;;;0.47;;
20344;SDS011;10330;48.816;9.278;2023-04-01T10:27:20;1.50;;;0.50;;
20344;SDS011;10330;48.816;9.278;2023-04-01T10:30:26;0.30;;;0.30;;
20344;SDS011;10330;48.816;9.278;2023-04-01T10:41:55;1.23;;;0.60;;
20344;SDS011;10330;48.816;9.278;2023-04-01T10:51:16;0.30;;;0.30;;
20344;SDS011;10330;48.816;9.278;2023-04-01T11:29:44;0.30;;;0.30;;
20344;SDS011;10330;48.816;9.278;2023-04-01T11:32:42;0.28;;;0.28;;
20344;SDS011;10330;48.816;9.278;2023-04-01T11:57:35;0.25;;;0.25;;
20344;SDS011;10330;48.816;9.278;2023-04-01T12:01:29;0.50;;;0.50;;
20344;SDS011;10330;48.816;9.278;2023-04-01T12:10:26;0.63;;;0.40;;
20344;SDS011;10330;48.816;9.278;2023-04-01T12:30:53;0.50;;;0.50;;
20344;SDS011;10330;48.816;9.278;2023-04-01T12:40:19;0.17;;;0.17;;
20344;SDS011;10330;48.816;9.278;2023-04-01T12:55:42;0.55;;;0.55;;
20344;SDS011;10330;48.816;9.278;2023-04-01T13:01:10;0.30;;;0.30;;
20344;SDS011;10330;48.816;9.278;2023-04-01T13:06:40;0.60;;;0.60;;
20344;SDS011;10330;48.816;9.278;2023-04-01T13:19:25;0.20;;;0.20;;
20344;SDS011;10330;48.816;9.278;2023-04-01T13:25:53;1.25;;;0.60;;
20344;SDS011;10330;48.816;9.278;2023-04-01T13:28:43;1.00;;;0.50;;
20344;SDS011;10330;48.816;9.278;2023-04-01T13:40:47;1.08;;;0.47;;
20344;SDS011;10330;48.816;9.278;2023-04-01T13:43:51;0.28;;;0.28;;
20344;SDS011;10330;48.816;9.278;2023-04-01T13:47:06;0.47;;;0.47;;
20344;SDS011;10330;48.816;9.278;2023-04-01T14:05:45;0.57;;;0.57;;
20344;SDS011;10330;48.816;9.278;2023-04-01T14:20:41;1.73;;;1.63;;
20344;SDS011;10330;48.816;9.278;2023-04-01T14:23:40;0.73;;;0.73;;
20344;SDS011;10330;48.816;9.278;2023-04-01T14:41:36;0.52;;;0.52;;
20344;SDS011;10330;48.816;9.278;2023-04-01T14:51:15;1.00;;;1.00;;
20344;SDS011;10330;48.816;9.278;2023-04-01T14:53:53;0.60;;;0.60;;
20344;SDS011;10330;48.816;9.278;2023-04-01T14:57:01;0.82;;;0.70;;
20344;SDS011;10330;48.816;9.278;2023-04-01T15:16:34;0.57;;;0.57;;
20344;SDS011;10330;48.816;9.278;2023-04-01T15:25:44;0.63;;;0.40;;
20344;SDS011;10330;48.816;9.278;2023-04-01T15:28:39;0.40;;;0.40;;
20344;SDS011;10330;48.816;9.278;2023-04-01T15:43:23;0.50;;;0.50;;
20344;SDS011;10330;48.816;9.278;2023-04-01T15:59:31;2.08;;;0.43;;
20344;SDS011;10330;48.816;9.278;2023-04-01T16:02:27;0.63;;;0.63;;
20344;SDS011;10330;48.816;9.278;2023-04-01T16:30:58;1.38;;;1.30;;
20344;SDS011;10330;48.816;9.278;2023-04-01T16:47:51;2.65;;;1.33;;
20344;SDS011;10330;48.816;9.278;2023-04-01T16:54:11;2.45;;;1.10;;
20344;SDS011;10330;48.816;9.278;2023-04-01T17:07:05;0.70;;;0.70;;
20344;SDS011;10330;48.816;9.278;2023-04-01T17:12:38;1.20;;;0.85;;
20344;SDS011;10330;48.816;9.278;2023-04-01T17:15:23;1.70;;;1.60;;
20344;SDS011;10330;48.816;9.278;2023-04-01T17:18:28;1.85;;;1.08;;
20344;SDS011;10330;48.816;9.278;2023-04-01T17:21:10;1.50;;;1.40;;
20344;SDS011;10330;48.816;9.278;2023-04-01T17:23:48;0.93;;;0.93;;
20344;SDS011;10330;48.816;9.278;2023-04-01T17:32:04;2.58;;;1.33;;
20344;SDS011;10330;48.816;9.278;2023-04-01T17:46:02;2.55;;;1.95;;
20344;SDS011;10330;48.816;9.278;2023-04-01T17:58:03;2.35;;;1.80;;
20344;SDS011;10330;48.816;9.278;2023-04-01T18:00:38;2.05;;;1.90;;
20344;SDS011;10330;48.816;9.278;2023-04-01T18:06:34;4.47;;;1.23;;
20344;SDS011;10330;48.816;9.278;2023-04-01T18:15:04;3.47;;;0.80;;
20344;SDS011;10330;48.816;9.278;2023-04-01T18:22:58;1.75;;;1.02;;
20344;SDS011;10330;48.816;9.278;2023-04-01T18:25:28;2.22;;;0.95;;
20344;SDS011;10330;48.816;9.278;2023-04-01T18:30:53;0.85;;;0.82;;
20344;SDS011;10330;48.816;9.278;2023-04-01T18:36:14;1.23;;;1.13;;
20344;SDS011;10330;48.816;9.278;2023-04-01T18:44:59;1.08;;;1.08;;
20344;SDS011;10330;48.816;9.278;2023-04-01T18:47:25;0.85;;;0.85;;
20344;SDS011;10330;48.816;9.278;2023-04-01T18:56:06;1.58;;;0.80;;
20344;SDS011;10330;48.816;9.278;2023-04-01T18:58:37;1.85;;;1.00;;
20344;SDS011;10330;48.816;9.278;2023-04-01T19:01:16;5.88;;;1.10;;
20344;SDS011;10330;48.816;9.278;2023-04-01T19:06:20;1.60;;;0.82;;
20344;SDS011;10330;48.816;9.278;2023-04-01T19:09:00;1.02;;;0.88;;
20344;SDS011;10330;48.816;9.278;2023-04-01T19:17:10;1.30;;;1.27;;
20344;SDS011;10330;48.816;9.278;2023-04-01T19:27:52;1.40;;;0.88;;
20344;SDS011;10330;48.816;9.278;2023-04-01T19:32:58;1.30;;;1.15;;
20344;SDS011;10330;48.816;9.278;2023-04-01T19:35:54;0.85;;;0.85;;
20344;SDS011;10330;48.816;9.278;2023-04-01T19:38:39;0.95;;;0.90;;
20344;SDS011;10330;48.816;9.278;2023-04-01T19:46:47;0.70;;;0.70;;
20344;SDS011;10330;48.816;9.278;2023-04-01T19:52:26;2.10;;;1.30;;
20344;SDS011;10330;48.816;9.278;2023-04-01T19:58:05;1.25;;;1.08;;
20344;SDS011;10330;48.816;9.278;2023-04-01T20:00:56;1.52;;;1.42;;
20344;SDS011;10330;48.816;9.278;2023-04-01T20:11:10;6.60;;;0.93;;
20344;SDS011;10330;48.816;9.278;2023-04-01T20:16:40;0.90;;;0.90;;
20344;SDS011;10330;48.816;9.278;2023-04-01T20:19:21;1.25;;;0.90;;
20344;SDS011;10330;48.816;9.278;2023-04-01T20:21:55;1.15;;;0.77;;
20344;SDS011;10330;48.816;9.278;2023-04-01T20:24:29;2.38;;;0.80;;
20344;SDS011;10330;48.816;9.278;2023-04-01T20:27:15;1.02;;;0.77;;
20344;SDS011;10330;48.816;9.278;2023-04-01T20:38:38;0.63;;;0.63;;
20344;SDS011;10330;48.816;9.278;2023-04-01T20:44:06;0.68;;;0.68;;
20344;SDS011;10330;48.816;9.278;2023-04-01T20:54:47;0.70;;;0.70;;
20344;SDS011;10330;48.816;9.278;2023-04-01T20:57:27;0.73;;;0.68;;
20344;SDS011;10330;48.816;9.278;2023-04-01T21:02:54;0.70;;;0.70;;
20344;SDS011;10330;48.816;9.278;2023-04-01T21:11:13;0.50;;;0.50;;
20344;SDS011;10330;48.816;9.278;2023-04-01T21:28:09;0.75;;;0.75;;
20344;SDS011;10330;48.816;9.278;2023-04-01T21:36:52;2.33;;;0.90;;
20344;SDS011;10330;48.816;9.278;2023-04-01T21:42:28;1.35;;;0.65;;
20344;SDS011;10330;48.816;9.278;2023-04-01T21:48:01;1.13;;;0.70;;
20344;SDS011;10330;48.816;9.278;2023-04-01T21:53:42;0.85;;;0.75;;
20344;SDS011;10330;48.816;9.278;2023-04-01T21:56:47;0.68;;;0.68;;
20344;SDS011;10330;48.816;9.278;2023-04-01T22:02:10;2.22;;;0.80;;
20344;SDS011;10330;48.816;9.278;2023-04-01T22:04:48;0.68;;;0.68;;
20344;SDS011;10330;48.816;9.278;2023-04-01T22:07:19;0.90;;;0.70;;
20344;SDS011;10330;48.816;9.278;2023-04-01T22:16:04;0.57;;;0.57;;
20344;SDS011;10330;48.816;9.278;2023-04-01T22:18:50;0.80;;;0.77;;
20344;SDS011;10330;48.816;9.278;2023-04-01T22:21:33;0.60;;;0.60;;
20344;SDS011;10330;48.816;9.278;2023-04-01T22:27:06;0.90;;;0.90;;
20344;SDS011;10330;48.816;9.278;2023-04-01T22:32:25;0.68;;;0.68;;
20344;SDS011;10330;48.816;9.278;2023-04-01T22:34:57;0.95;;;0.60;;
20344;SDS011;10330;48.816;9.278;2023-04-01T22:42:59;2.10;;;0.80;;
20344;SDS011;10330;48.816;9.278;2023-04-01T22:48:17;0.68;;;0.68;;
20344;SDS011;10330;48.816;9.278;2023-04-01T22:50:55;1.77;;;0.47;;
20344;SDS011;10330;48.816;9.278;2023-04-01T22:53:45;0.57;;;0.57;;
20344;SDS011;10330;48.816;9.278;2023-04-01T22:56:46;0.80;;;0.70;;
20344;SDS011;10330;48.816;9.278;2023-04-01T22:59:22;0.50;;;0.50;;
20344;SDS011;10330;48.816;9.278;2023-04-01T23:02:11;0.60;;;0.50;;
20344;SDS011;10330;48.816;9.278;2023-04-01T23:04:47;4.30;;;0.60;;
20344;SDS011;10330;48.816;9.278;2023-04-01T23:07:23;0.28;;;0.28;;
20344;SDS011;10330;48.816;9.278;2023-04-01T23:09:54;0.47;;;0.47;;
20344;SDS011;10330;48.816;9.278;2023-04-01T23:12:23;0.60;;;0.60;;
20344;SDS011;10330;48.816;9.278;2023-04-01T23:14:55;2.60;;;0.60;;
20344;SDS011;10330;48.816;9.278;2023-04-01T23:20:07;4.03;;;1.27;;
20344;SDS011;10330;48.816;9.278;2023-04-01T23:23:08;1.80;;;0.73;;
20344;SDS011;10330;48.816;9.278;2023-04-01T23:25:50;0.65;;;0.65;;
20344;SDS011;10330;48.816;9.278;2023-04-01T23:31:36;0.55;;;0.55;;
20344;SDS011;10330;48.816;9.278;2023-04-01T23:36:37;0.47;;;0.47;;
20344;SDS011;10330;48.816;9.278;2023-04-01T23:41:48;2.10;;;0.68;;
20344;SDS011;10330;48.816;9.278;2023-04-01T23:44:16;0.98;;;0.60;;
20344;SDS011;10330;48.816;9.278;2023-04-01T23:46:42;0.60;;;0.60;;
20344;SDS011;10330;48.816;9.278;2023-04-01T23:49:19;0.50;;;0.50;;
20344;SDS011;10330;48.816;9.278;2023-04-01T23:51:54;0.50;;;0.50;;
20344;SDS011;10330;48.816;9.278;2023-04-01T23:54:33;0.75;;;0.60;;
20344;SDS011;10330;48.816;9.278;2023-04-01T23:57:31;0.50;;;0.50;;
